Kezdőlap
METAR-TAF:

METAR-TAF

Repülőterek :

Kamloops, Brit Columbia, Kanada

földrajzi szélesség: 50-42N, földrajzi hosszúság: 120-27W, magasság: 345 m

Jelenlegi meteorológiai megfigyelések

A jelentés 30 perccel ezelõtt készült, 08:00 UTC
Nyugat-délnyugati szél 7 kt
Hőmérséklet 6°C
Páratartalom 75%
Légköri nyomás 1015 hPa
Látótávolság: 64.4 km
Derült ég

METAR: CYKA 200800Z 25007KT 40SM SKC 06/02 A2998 RMK SLP164

Idő: 01:30 (08:30 UTC)

Előrejelzés

A jelentés 1 órával és 52 perccel ezelõtt készült, 06:38 UTC
Az előrejelzés 20-én 07 óra UTC és 20-én 19 óra UTC között érvényes
Nyugati szél 8 kt
Látótávolság: 10 km
Kevés felhő 7000 lábon
Szórványos felhőzet 11000 lábon

TAF: CYKA 200638Z 2007/2019 27008KT P6SM FEW070 SCT110 RMK NXT FCST BY 201300Z

Meteorológiai megfigyelések és előrejelzések több, mint 4000 repülőtéren (METAR és TAF jelentéseket).

A térképen piros és sárga pontok jelzik az elérhető meteorológiai állomásokat.

Mozgassa az egeret a pont fölött, hogy megjelenjen az állomás neve.

Azután kattintson az időjárási megfigyelések és előrejelzések megtekintéséhez.

A térkép megváltoztatása: kattintson a fekete keresztel jelölt zöld gombra ráközelítéshez, a vonallal jelölt zöld gombra távolításhoz, vagy a zöld nyilakra a szomszédos térképek eléréséhez.


METAR-TAF: